Ital Oriente — A8LN2 — position and weather

sailwx.info

Track history (hours):
 
Tides and Currents Weather Stations Pressure Air Temp Water Temp Dewpoint Dewpoint Depression Visibility Wind Speed Wind Dir Waves Ship Positions

Ital Oriente

Last reported at 2014-Dec-21 01:25 UTC. Time now 2014-Dec-21 04:48 UTC.
Position N 39°48' E 025°46'.

Length 222 m; draft 7.8 m.

Type: Cargo ship. MMSI: 636091278.

Date/timePositionNaut miles runAvg speedWind from/ knotsBaromVisibWave heightAir tempDewpointWater temp
2014-Dec-21 01:25N 39°48' E 025°46'1512.6
2014-Dec-21 00:16N 40°00' E 025°57'4913.0
2014-Dec-20 20:30N 40°28' E 026°50'8617.1
2014-Dec-20 15:27N 40°53' E 028°39'2 0.2
2014-Dec-20 04:17N 40°55' E 028°40'9315.6
2014-Dec-19 22:20N 40°26' E 026°45'4712.1
2014-Dec-19 18:25N 39°55' E 025°57'12 5.4
2014-Dec-19 16:09N 39°45' E 025°48'1415.6
2014-Dec-19 15:17N 39°33' E 025°39'8517.0
2014-Dec-19 10:15N 38°17' E 024°51'2917.3
2014-Dec-19 08:33N 37°53' E 024°30'2317.2
2014-Dec-19 07:14N 37°37' E 024°09'1116.4
2014-Dec-19 06:33N 37°35' E 023°55'1716.5
2014-Dec-19 05:33N 37°46' E 023°39'1212.2
2014-Dec-19 04:33N 37°57' E 023°35'0 0.0
2014-Dec-19 03:32N 37°57' E 023°35'0 0.0
2014-Dec-19 02:32N 37°57' E 023°35'0 0.0
2014-Dec-19 01:33N 37°57' E 023°35'0 0.0
2014-Dec-19 00:32N 37°57' E 023°35'0 0.0
2014-Dec-18 23:32N 37°57' E 023°35'0 0.0
2014-Dec-18 22:32N 37°57' E 023°35'0 0.0
2014-Dec-18 21:33N 37°57' E 023°35'0 0.0
2014-Dec-18 20:32N 37°57' E 023°35'0 0.0
2014-Dec-18 19:32N 37°57' E 023°35'0 0.0
2014-Dec-18 18:32N 37°57' E 023°35'0 0.0
2014-Dec-18 17:32N 37°57' E 023°35'0 0.0
2014-Dec-18 16:32N 37°57' E 023°35'0 0.0
2014-Dec-18 15:32N 37°57' E 023°35'0 0.0
2014-Dec-18 14:32N 37°57' E 023°35'0 0.0
2014-Dec-18 13:29N 37°57' E 023°35'0 0.0
2014-Dec-18 12:32N 37°57' E 023°35'0 0.0
2014-Dec-18 11:32N 37°57' E 023°35'0 0.0
2014-Dec-18 10:32N 37°57' E 023°35'0 0.0
2014-Dec-18 09:32N 37°57' E 023°35'0 0.0
2014-Dec-18 08:32N 37°57' E 023°35'0 0.0
2014-Dec-18 06:11N 37°57' E 023°35'0 0.7
2014-Dec-18 05:33N 37°57' E 023°35'4 3.5
2014-Dec-18 04:33N 37°54' E 023°36'6 5.8
2014-Dec-18 03:33N 37°49' E 023°41'8 7.7
2014-Dec-18 02:33N 37°42' E 023°45'9 9.5
2014-Dec-18 01:34N 37°36' E 023°54'1110.5
2014-Dec-18 00:33N 37°37' E 024°08'1211.6
2014-Dec-17 23:33N 37°45' E 024°18'1111.3
2014-Dec-17 22:33N 37°52' E 024°30'5310.2
2014-Dec-17 17:19N 38°43' E 024°08'70 1.3
2014-Dec-15 13:29N 39°48' E 023°36'1516.0
2014-Dec-15 12:33N 39°42' E 023°54'1616.3
2014-Dec-15 11:33N 39°34' E 024°13'1615.8
2014-Dec-15 10:33N 39°28' E 024°31'3716.3
2014-Dec-15 08:19N 39°12' E 025°14'1415.6
2014-Dec-15 07:25N 39°06' E 025°30'2015.6
2014-Dec-15 06:09N 38°58' E 025°53'  
2014-Dec-11 10:32N 38°15' E 024°52'2216.9
2014-Dec-11 09:16N 37°58' E 024°37'1216.3
2014-Dec-11 08:33N 37°49' E 024°26'1816.7
2014-Dec-11 07:27N 37°37' E 024°10'1515.8
2014-Dec-11 06:32N 37°37' E 023°51'1616.8
2014-Dec-11 05:34N 37°48' E 023°37'9 8.8
2014-Dec-11 04:33N 37°57' E 023°35'0 0.0
2014-Dec-11 03:33N 37°57' E 023°35'0 0.0
2014-Dec-11 02:33N 37°57' E 023°35'0 0.0
2014-Dec-11 01:33N 37°57' E 023°35'  
Track history (hours):
 
Tides and Currents Weather Stations Pressure Air Temp Water Temp Dewpoint Dewpoint Depression Visibility Wind Speed Wind Dir Waves Ship Positions

Ital Oriente

Last reported at 2014-Dec-21 01:25 UTC. Time now 2014-Dec-21 04:48 UTC.
Position N 39°48' E 025°46'.

Length 222 m; draft 7.8 m.

Type: Cargo ship. MMSI: 636091278.

Date/timePositionNaut miles runAvg speedWind from/ knotsBaromVisibWave heightAir tempDewpointWater temp
2014-Dec-21 01:25N 39°48' E 025°46'1512.6
2014-Dec-21 00:16N 40°00' E 025°57'4913.0
2014-Dec-20 20:30N 40°28' E 026°50'8617.1
2014-Dec-20 15:27N 40°53' E 028°39'2 0.2
2014-Dec-20 04:17N 40°55' E 028°40'9315.6
2014-Dec-19 22:20N 40°26' E 026°45'4712.1
2014-Dec-19 18:25N 39°55' E 025°57'12 5.4
2014-Dec-19 16:09N 39°45' E 025°48'1415.6
2014-Dec-19 15:17N 39°33' E 025°39'8517.0
2014-Dec-19 10:15N 38°17' E 024°51'2917.3
2014-Dec-19 08:33N 37°53' E 024°30'2317.2
2014-Dec-19 07:14N 37°37' E 024°09'1116.4
2014-Dec-19 06:33N 37°35' E 023°55'1716.5
2014-Dec-19 05:33N 37°46' E 023°39'1212.2
2014-Dec-19 04:33N 37°57' E 023°35'0 0.0
2014-Dec-19 03:32N 37°57' E 023°35'0 0.0
2014-Dec-19 02:32N 37°57' E 023°35'0 0.0
2014-Dec-19 01:33N 37°57' E 023°35'0 0.0
2014-Dec-19 00:32N 37°57' E 023°35'0 0.0
2014-Dec-18 23:32N 37°57' E 023°35'0 0.0
2014-Dec-18 22:32N 37°57' E 023°35'0 0.0
2014-Dec-18 21:33N 37°57' E 023°35'0 0.0
2014-Dec-18 20:32N 37°57' E 023°35'0 0.0
2014-Dec-18 19:32N 37°57' E 023°35'0 0.0
2014-Dec-18 18:32N 37°57' E 023°35'0 0.0
2014-Dec-18 17:32N 37°57' E 023°35'0 0.0
2014-Dec-18 16:32N 37°57' E 023°35'0 0.0
2014-Dec-18 15:32N 37°57' E 023°35'0 0.0
2014-Dec-18 14:32N 37°57' E 023°35'0 0.0
2014-Dec-18 13:29N 37°57' E 023°35'0 0.0
2014-Dec-18 12:32N 37°57' E 023°35'0 0.0
2014-Dec-18 11:32N 37°57' E 023°35'0 0.0
2014-Dec-18 10:32N 37°57' E 023°35'0 0.0
2014-Dec-18 09:32N 37°57' E 023°35'0 0.0
2014-Dec-18 08:32N 37°57' E 023°35'0 0.0
2014-Dec-18 06:11N 37°57' E 023°35'0 0.7
2014-Dec-18 05:33N 37°57' E 023°35'4 3.5
2014-Dec-18 04:33N 37°54' E 023°36'6 5.8
2014-Dec-18 03:33N 37°49' E 023°41'8 7.7
2014-Dec-18 02:33N 37°42' E 023°45'9 9.5
2014-Dec-18 01:34N 37°36' E 023°54'1110.5
2014-Dec-18 00:33N 37°37' E 024°08'1211.6
2014-Dec-17 23:33N 37°45' E 024°18'1111.3
2014-Dec-17 22:33N 37°52' E 024°30'5310.2
2014-Dec-17 17:19N 38°43' E 024°08'70 1.3
2014-Dec-15 13:29N 39°48' E 023°36'1516.0
2014-Dec-15 12:33N 39°42' E 023°54'1616.3
2014-Dec-15 11:33N 39°34' E 024°13'1615.8
2014-Dec-15 10:33N 39°28' E 024°31'3716.3
2014-Dec-15 08:19N 39°12' E 025°14'1415.6
2014-Dec-15 07:25N 39°06' E 025°30'2015.6
2014-Dec-15 06:09N 38°58' E 025°53'  
2014-Dec-11 10:32N 38°15' E 024°52'2216.9
2014-Dec-11 09:16N 37°58' E 024°37'1216.3
2014-Dec-11 08:33N 37°49' E 024°26'1816.7
2014-Dec-11 07:27N 37°37' E 024°10'1515.8
2014-Dec-11 06:32N 37°37' E 023°51'1616.8
2014-Dec-11 05:34N 37°48' E 023°37'9 8.8
2014-Dec-11 04:33N 37°57' E 023°35'0 0.0
2014-Dec-11 03:33N 37°57' E 023°35'0 0.0
2014-Dec-11 02:33N 37°57' E 023°35'0 0.0
2014-Dec-11 01:33N 37°57' E 023°35'  

Dump ship's entire track history